sensor_id;sensor_type;location;lat;lon;timestamp;P1;durP1;ratioP1;P2;durP2;ratioP2
10884;SDS011;5495;53.252;10.390;2022-09-04T00:01:42;1.30;;;0.90;;
10884;SDS011;5495;53.252;10.390;2022-09-04T00:04:19;1.80;;;1.10;;
10884;SDS011;5495;53.252;10.390;2022-09-04T00:06:59;1.40;;;0.97;;
10884;SDS011;5495;53.252;10.390;2022-09-04T00:09:35;1.63;;;1.00;;
10884;SDS011;5495;53.252;10.390;2022-09-04T00:12:13;1.17;;;1.00;;
10884;SDS011;5495;53.252;10.390;2022-09-04T00:14:44;3.30;;;1.00;;
10884;SDS011;5495;53.252;10.390;2022-09-04T00:17:15;1.90;;;1.10;;
10884;SDS011;5495;53.252;10.390;2022-09-04T00:19:50;1.53;;;1.00;;
10884;SDS011;5495;53.252;10.390;2022-09-04T00:22:26;2.80;;;1.00;;
10884;SDS011;5495;53.252;10.390;2022-09-04T00:25:01;2.03;;;1.10;;
10884;SDS011;5495;53.252;10.390;2022-09-04T00:27:37;1.87;;;1.00;;
10884;SDS011;5495;53.252;10.390;2022-09-04T00:30:11;3.03;;;1.17;;
10884;SDS011;5495;53.252;10.390;2022-09-04T00:32:45;1.63;;;1.00;;
10884;SDS011;5495;53.252;10.390;2022-09-04T00:35:19;2.40;;;1.17;;
10884;SDS011;5495;53.252;10.390;2022-09-04T00:37:52;2.63;;;1.10;;
10884;SDS011;5495;53.252;10.390;2022-09-04T00:40:27;2.70;;;1.40;;
10884;SDS011;5495;53.252;10.390;2022-09-04T00:43:09;1.20;;;1.10;;
10884;SDS011;5495;53.252;10.390;2022-09-04T00:45:59;2.77;;;1.30;;
10884;SDS011;5495;53.252;10.390;2022-09-04T00:48:59;2.43;;;1.10;;
10884;SDS011;5495;53.252;10.390;2022-09-04T00:51:43;3.47;;;1.27;;
10884;SDS011;5495;53.252;10.390;2022-09-04T00:54:25;1.80;;;1.13;;
10884;SDS011;5495;53.252;10.390;2022-09-04T01:00:28;1.93;;;1.10;;
10884;SDS011;5495;53.252;10.390;2022-09-04T01:05:50;1.53;;;1.23;;
10884;SDS011;5495;53.252;10.390;2022-09-04T01:08:37;1.60;;;1.10;;
10884;SDS011;5495;53.252;10.390;2022-09-04T01:11:23;1.20;;;0.83;;
10884;SDS011;5495;53.252;10.390;2022-09-04T01:14:00;6.63;;;1.30;;
10884;SDS011;5495;53.252;10.390;2022-09-04T01:16:40;2.33;;;1.10;;
10884;SDS011;5495;53.252;10.390;2022-09-04T01:19:22;3.23;;;1.03;;
10884;SDS011;5495;53.252;10.390;2022-09-04T01:22:12;1.20;;;0.90;;
10884;SDS011;5495;53.252;10.390;2022-09-04T01:25:04;1.87;;;0.90;;
10884;SDS011;5495;53.252;10.390;2022-09-04T01:27:45;1.30;;;1.10;;
10884;SDS011;5495;53.252;10.390;2022-09-04T01:30:19;1.47;;;1.03;;
10884;SDS011;5495;53.252;10.390;2022-09-04T01:32:52;3.30;;;1.07;;
10884;SDS011;5495;53.252;10.390;2022-09-04T01:35:29;2.37;;;1.07;;
10884;SDS011;5495;53.252;10.390;2022-09-04T01:38:02;1.37;;;1.03;;
10884;SDS011;5495;53.252;10.390;2022-09-04T01:40:42;3.20;;;1.13;;
10884;SDS011;5495;53.252;10.390;2022-09-04T01:43:15;2.57;;;1.10;;
10884;SDS011;5495;53.252;10.390;2022-09-04T01:45:52;2.27;;;1.00;;
10884;SDS011;5495;53.252;10.390;2022-09-04T01:48:39;1.20;;;0.83;;
10884;SDS011;5495;53.252;10.390;2022-09-04T01:51:16;1.80;;;1.10;;
10884;SDS011;5495;53.252;10.390;2022-09-04T01:53:56;2.47;;;1.10;;
10884;SDS011;5495;53.252;10.390;2022-09-04T01:56:33;2.10;;;1.20;;
10884;SDS011;5495;53.252;10.390;2022-09-04T01:59:13;1.67;;;0.90;;
10884;SDS011;5495;53.252;10.390;2022-09-04T02:01:46;1.20;;;1.00;;
10884;SDS011;5495;53.252;10.390;2022-09-04T02:04:21;3.00;;;1.00;;
10884;SDS011;5495;53.252;10.390;2022-09-04T02:06:58;5.07;;;1.10;;
10884;SDS011;5495;53.252;10.390;2022-09-04T02:09:34;1.10;;;1.00;;
10884;SDS011;5495;53.252;10.390;2022-09-04T02:12:10;1.07;;;0.97;;
10884;SDS011;5495;53.252;10.390;2022-09-04T02:14:49;3.87;;;1.10;;
10884;SDS011;5495;53.252;10.390;2022-09-04T02:17:25;1.80;;;1.10;;
10884;SDS011;5495;53.252;10.390;2022-09-04T02:20:07;5.80;;;1.17;;
10884;SDS011;5495;53.252;10.390;2022-09-04T02:22:44;1.80;;;1.00;;
10884;SDS011;5495;53.252;10.390;2022-09-04T02:25:23;3.17;;;1.20;;
10884;SDS011;5495;53.252;10.390;2022-09-04T02:27:57;2.40;;;0.90;;
10884;SDS011;5495;53.252;10.390;2022-09-04T02:30:47;1.10;;;0.90;;
10884;SDS011;5495;53.252;10.390;2022-09-04T02:33:23;4.40;;;0.90;;
10884;SDS011;5495;53.252;10.390;2022-09-04T02:35:55;1.73;;;1.10;;
10884;SDS011;5495;53.252;10.390;2022-09-04T02:38:28;5.23;;;1.03;;
10884;SDS011;5495;53.252;10.390;2022-09-04T02:41:04;1.23;;;0.87;;
10884;SDS011;5495;53.252;10.390;2022-09-04T02:43:43;6.00;;;1.20;;
10884;SDS011;5495;53.252;10.390;2022-09-04T02:46:25;2.63;;;1.30;;
10884;SDS011;5495;53.252;10.390;2022-09-04T02:49:08;4.63;;;1.20;;
10884;SDS011;5495;53.252;10.390;2022-09-04T02:51:53;3.63;;;1.10;;
10884;SDS011;5495;53.252;10.390;2022-09-04T02:54:34;2.87;;;1.07;;
10884;SDS011;5495;53.252;10.390;2022-09-04T02:57:18;2.17;;;1.03;;
10884;SDS011;5495;53.252;10.390;2022-09-04T02:59:57;1.40;;;1.10;;
10884;SDS011;5495;53.252;10.390;2022-09-04T03:02:34;1.70;;;1.20;;
10884;SDS011;5495;53.252;10.390;2022-09-04T03:05:10;4.60;;;1.10;;
10884;SDS011;5495;53.252;10.390;2022-09-04T03:07:47;3.47;;;1.23;;
10884;SDS011;5495;53.252;10.390;2022-09-04T03:10:22;1.80;;;1.23;;
10884;SDS011;5495;53.252;10.390;2022-09-04T03:12:55;1.23;;;1.10;;
10884;SDS011;5495;53.252;10.390;2022-09-04T03:15:34;2.57;;;1.30;;
10884;SDS011;5495;53.252;10.390;2022-09-04T03:18:09;1.33;;;1.10;;
10884;SDS011;5495;53.252;10.390;2022-09-04T03:20:43;3.17;;;1.20;;
10884;SDS011;5495;53.252;10.390;2022-09-04T03:23:19;3.17;;;1.00;;
10884;SDS011;5495;53.252;10.390;2022-09-04T03:25:55;3.10;;;1.60;;
10884;SDS011;5495;53.252;10.390;2022-09-04T03:28:50;1.40;;;1.03;;
10884;SDS011;5495;53.252;10.390;2022-09-04T03:31:28;2.43;;;1.00;;
10884;SDS011;5495;53.252;10.390;2022-09-04T03:34:04;4.03;;;1.27;;
10884;SDS011;5495;53.252;10.390;2022-09-04T03:36:44;3.57;;;1.47;;
10884;SDS011;5495;53.252;10.390;2022-09-04T03:39:24;1.33;;;1.07;;
10884;SDS011;5495;53.252;10.390;2022-09-04T03:42:09;2.03;;;1.30;;
10884;SDS011;5495;53.252;10.390;2022-09-04T03:44:50;1.30;;;1.20;;
10884;SDS011;5495;53.252;10.390;2022-09-04T03:47:29;2.17;;;1.10;;
10884;SDS011;5495;53.252;10.390;2022-09-04T03:50:08;1.97;;;1.00;;
10884;SDS011;5495;53.252;10.390;2022-09-04T03:52:45;2.83;;;1.30;;
10884;SDS011;5495;53.252;10.390;2022-09-04T03:55:28;1.43;;;1.20;;
10884;SDS011;5495;53.252;10.390;2022-09-04T03:58:09;0.80;;;0.80;;
10884;SDS011;5495;53.252;10.390;2022-09-04T04:00:49;2.40;;;1.03;;
10884;SDS011;5495;53.252;10.390;2022-09-04T04:03:31;1.10;;;1.00;;
10884;SDS011;5495;53.252;10.390;2022-09-04T04:06:12;2.93;;;1.20;;
10884;SDS011;5495;53.252;10.390;2022-09-04T04:08:51;2.87;;;1.00;;
10884;SDS011;5495;53.252;10.390;2022-09-04T04:11:51;2.87;;;1.50;;
10884;SDS011;5495;53.252;10.390;2022-09-04T04:14:41;1.37;;;1.10;;
10884;SDS011;5495;53.252;10.390;2022-09-04T04:17:24;2.27;;;1.20;;
10884;SDS011;5495;53.252;10.390;2022-09-04T04:20:05;5.43;;;1.10;;
10884;SDS011;5495;53.252;10.390;2022-09-04T04:25:48;1.63;;;1.30;;
10884;SDS011;5495;53.252;10.390;2022-09-04T04:28:42;3.23;;;1.23;;
10884;SDS011;5495;53.252;10.390;2022-09-04T04:31:29;1.80;;;1.23;;
10884;SDS011;5495;53.252;10.390;2022-09-04T04:34:10;3.17;;;1.43;;
10884;SDS011;5495;53.252;10.390;2022-09-04T04:36:47;4.13;;;1.13;;
10884;SDS011;5495;53.252;10.390;2022-09-04T04:39:23;4.20;;;1.37;;
10884;SDS011;5495;53.252;10.390;2022-09-04T04:42:03;2.10;;;1.40;;
10884;SDS011;5495;53.252;10.390;2022-09-04T04:44:47;4.10;;;1.50;;
10884;SDS011;5495;53.252;10.390;2022-09-04T04:47:49;1.90;;;1.20;;
10884;SDS011;5495;53.252;10.390;2022-09-04T04:50:37;1.67;;;1.23;;
10884;SDS011;5495;53.252;10.390;2022-09-04T04:53:13;1.63;;;1.20;;
10884;SDS011;5495;53.252;10.390;2022-09-04T04:55:54;2.67;;;1.40;;
10884;SDS011;5495;53.252;10.390;2022-09-04T05:01:24;3.57;;;1.40;;
10884;SDS011;5495;53.252;10.390;2022-09-04T05:04:04;3.70;;;1.37;;
10884;SDS011;5495;53.252;10.390;2022-09-04T05:06:38;1.67;;;1.20;;
10884;SDS011;5495;53.252;10.390;2022-09-04T05:09:15;1.20;;;1.10;;
10884;SDS011;5495;53.252;10.390;2022-09-04T05:11:54;6.03;;;2.30;;
10884;SDS011;5495;53.252;10.390;2022-09-04T05:14:34;7.57;;;1.30;;
10884;SDS011;5495;53.252;10.390;2022-09-04T05:17:24;1.23;;;1.13;;
10884;SDS011;5495;53.252;10.390;2022-09-04T05:20:13;1.20;;;1.10;;
10884;SDS011;5495;53.252;10.390;2022-09-04T05:22:51;4.20;;;1.30;;
10884;SDS011;5495;53.252;10.390;2022-09-04T05:25:34;3.13;;;1.30;;
10884;SDS011;5495;53.252;10.390;2022-09-04T05:28:13;1.77;;;1.33;;
10884;SDS011;5495;53.252;10.390;2022-09-04T05:30:49;2.30;;;1.30;;
10884;SDS011;5495;53.252;10.390;2022-09-04T05:33:23;1.80;;;1.10;;
10884;SDS011;5495;53.252;10.390;2022-09-04T05:35:58;3.10;;;1.13;;
10884;SDS011;5495;53.252;10.390;2022-09-04T05:38:34;1.83;;;1.20;;
10884;SDS011;5495;53.252;10.390;2022-09-04T05:41:10;2.97;;;1.20;;
10884;SDS011;5495;53.252;10.390;2022-09-04T05:43:55;1.63;;;1.37;;
10884;SDS011;5495;53.252;10.390;2022-09-04T05:46:36;3.63;;;1.57;;
10884;SDS011;5495;53.252;10.390;2022-09-04T05:49:17;3.37;;;1.37;;
10884;SDS011;5495;53.252;10.390;2022-09-04T05:52:02;5.00;;;1.37;;
10884;SDS011;5495;53.252;10.390;2022-09-04T05:55:05;3.83;;;1.80;;
10884;SDS011;5495;53.252;10.390;2022-09-04T06:00:49;2.13;;;1.40;;
10884;SDS011;5495;53.252;10.390;2022-09-04T06:03:47;2.77;;;1.23;;
10884;SDS011;5495;53.252;10.390;2022-09-04T06:06:29;1.40;;;1.30;;
10884;SDS011;5495;53.252;10.390;2022-09-04T06:09:15;2.70;;;1.53;;
10884;SDS011;5495;53.252;10.390;2022-09-04T06:18:26;2.50;;;1.07;;
10884;SDS011;5495;53.252;10.390;2022-09-04T06:27:28;2.43;;;1.20;;
10884;SDS011;5495;53.252;10.390;2022-09-04T06:30:06;1.20;;;1.00;;
10884;SDS011;5495;53.252;10.390;2022-09-04T06:36:05;1.67;;;1.10;;
10884;SDS011;5495;53.252;10.390;2022-09-04T06:38:49;2.83;;;1.20;;
10884;SDS011;5495;53.252;10.390;2022-09-04T06:41:40;3.00;;;1.43;;
10884;SDS011;5495;53.252;10.390;2022-09-04T06:44:22;4.07;;;1.47;;
10884;SDS011;5495;53.252;10.390;2022-09-04T06:47:01;3.57;;;1.60;;
10884;SDS011;5495;53.252;10.390;2022-09-04T06:49:40;4.77;;;1.30;;
10884;SDS011;5495;53.252;10.390;2022-09-04T06:52:27;3.50;;;1.30;;
10884;SDS011;5495;53.252;10.390;2022-09-04T06:55:05;3.40;;;1.50;;
10884;SDS011;5495;53.252;10.390;2022-09-04T06:57:45;2.80;;;1.40;;
10884;SDS011;5495;53.252;10.390;2022-09-04T07:00:32;2.93;;;1.33;;
10884;SDS011;5495;53.252;10.390;2022-09-04T07:06:10;1.90;;;1.43;;
10884;SDS011;5495;53.252;10.390;2022-09-04T07:08:50;2.10;;;1.80;;
10884;SDS011;5495;53.252;10.390;2022-09-04T07:11:31;4.17;;;1.50;;
10884;SDS011;5495;53.252;10.390;2022-09-04T07:17:02;2.73;;;1.73;;
10884;SDS011;5495;53.252;10.390;2022-09-04T07:22:53;5.43;;;1.57;;
10884;SDS011;5495;53.252;10.390;2022-09-04T07:25:56;6.03;;;1.70;;
10884;SDS011;5495;53.252;10.390;2022-09-04T07:28:40;2.60;;;1.53;;
10884;SDS011;5495;53.252;10.390;2022-09-04T07:31:23;2.53;;;1.70;;
10884;SDS011;5495;53.252;10.390;2022-09-04T07:33:58;5.53;;;1.73;;
10884;SDS011;5495;53.252;10.390;2022-09-04T07:36:35;2.70;;;1.87;;
10884;SDS011;5495;53.252;10.390;2022-09-04T07:39:11;4.47;;;1.90;;
10884;SDS011;5495;53.252;10.390;2022-09-04T07:41:47;2.57;;;1.70;;
10884;SDS011;5495;53.252;10.390;2022-09-04T07:44:25;2.73;;;1.83;;
10884;SDS011;5495;53.252;10.390;2022-09-04T07:47:01;3.10;;;1.93;;
10884;SDS011;5495;53.252;10.390;2022-09-04T07:49:37;2.03;;;1.80;;
10884;SDS011;5495;53.252;10.390;2022-09-04T07:52:21;2.70;;;2.30;;
10884;SDS011;5495;53.252;10.390;2022-09-04T07:55:06;2.87;;;2.10;;
10884;SDS011;5495;53.252;10.390;2022-09-04T08:00:56;7.13;;;2.60;;
10884;SDS011;5495;53.252;10.390;2022-09-04T08:03:44;3.20;;;1.90;;
10884;SDS011;5495;53.252;10.390;2022-09-04T08:06:29;2.60;;;2.17;;
10884;SDS011;5495;53.252;10.390;2022-09-04T08:09:08;5.00;;;2.10;;
10884;SDS011;5495;53.252;10.390;2022-09-04T08:14:58;3.93;;;2.43;;
10884;SDS011;5495;53.252;10.390;2022-09-04T08:17:48;5.33;;;2.50;;
10884;SDS011;5495;53.252;10.390;2022-09-04T08:20:34;3.00;;;2.07;;
10884;SDS011;5495;53.252;10.390;2022-09-04T08:23:25;2.77;;;2.17;;
10884;SDS011;5495;53.252;10.390;2022-09-04T08:26:08;4.60;;;2.23;;
10884;SDS011;5495;53.252;10.390;2022-09-04T08:28:50;4.37;;;2.33;;
10884;SDS011;5495;53.252;10.390;2022-09-04T08:31:43;2.90;;;2.37;;
10884;SDS011;5495;53.252;10.390;2022-09-04T08:34:30;2.23;;;1.90;;
10884;SDS011;5495;53.252;10.390;2022-09-04T08:37:13;4.87;;;2.60;;
10884;SDS011;5495;53.252;10.390;2022-09-04T08:39:52;4.43;;;2.10;;
10884;SDS011;5495;53.252;10.390;2022-09-04T08:45:54;5.27;;;2.30;;
10884;SDS011;5495;53.252;10.390;2022-09-04T08:49:11;2.90;;;2.40;;
10884;SDS011;5495;53.252;10.390;2022-09-04T08:52:14;3.83;;;2.60;;
10884;SDS011;5495;53.252;10.390;2022-09-04T08:55:26;3.67;;;2.50;;
10884;SDS011;5495;53.252;10.390;2022-09-04T08:58:15;2.60;;;2.10;;
10884;SDS011;5495;53.252;10.390;2022-09-04T09:01:09;2.60;;;2.40;;
10884;SDS011;5495;53.252;10.390;2022-09-04T09:04:01;3.30;;;2.50;;
10884;SDS011;5495;53.252;10.390;2022-09-04T09:13:23;3.03;;;2.60;;
10884;SDS011;5495;53.252;10.390;2022-09-04T09:16:18;4.23;;;2.73;;
10884;SDS011;5495;53.252;10.390;2022-09-04T09:21:54;5.13;;;2.40;;
10884;SDS011;5495;53.252;10.390;2022-09-04T09:34:15;3.90;;;2.30;;
10884;SDS011;5495;53.252;10.390;2022-09-04T09:40:21;3.23;;;2.50;;
10884;SDS011;5495;53.252;10.390;2022-09-04T09:43:24;2.63;;;2.30;;
10884;SDS011;5495;53.252;10.390;2022-09-04T09:46:28;4.80;;;2.30;;
10884;SDS011;5495;53.252;10.390;2022-09-04T09:55:37;3.00;;;2.27;;
10884;SDS011;5495;53.252;10.390;2022-09-04T09:58:38;3.60;;;2.40;;
10884;SDS011;5495;53.252;10.390;2022-09-04T10:01:37;3.43;;;2.60;;
10884;SDS011;5495;53.252;10.390;2022-09-04T10:07:39;3.90;;;2.30;;
10884;SDS011;5495;53.252;10.390;2022-09-04T10:10:42;2.43;;;1.80;;
10884;SDS011;5495;53.252;10.390;2022-09-04T10:19:31;3.20;;;2.50;;
10884;SDS011;5495;53.252;10.390;2022-09-04T10:22:26;4.07;;;2.40;;
10884;SDS011;5495;53.252;10.390;2022-09-04T10:25:22;3.10;;;1.90;;
10884;SDS011;5495;53.252;10.390;2022-09-04T10:31:52;4.60;;;2.43;;
10884;SDS011;5495;53.252;10.390;2022-09-04T10:34:46;2.43;;;1.80;;
10884;SDS011;5495;53.252;10.390;2022-09-04T10:37:35;4.03;;;2.37;;
10884;SDS011;5495;53.252;10.390;2022-09-04T10:40:26;3.47;;;2.40;;
10884;SDS011;5495;53.252;10.390;2022-09-04T10:43:09;2.33;;;2.10;;
10884;SDS011;5495;53.252;10.390;2022-09-04T10:45:53;4.93;;;2.57;;
10884;SDS011;5495;53.252;10.390;2022-09-04T10:48:34;2.07;;;1.83;;
10884;SDS011;5495;53.252;10.390;2022-09-04T10:57:54;3.40;;;2.23;;
10884;SDS011;5495;53.252;10.390;2022-09-04T11:00:38;3.00;;;1.90;;
10884;SDS011;5495;53.252;10.390;2022-09-04T11:03:28;2.50;;;2.07;;
10884;SDS011;5495;53.252;10.390;2022-09-04T11:06:24;3.53;;;2.20;;
10884;SDS011;5495;53.252;10.390;2022-09-04T11:12:28;7.67;;;2.20;;
10884;SDS011;5495;53.252;10.390;2022-09-04T11:15:39;2.73;;;2.20;;
10884;SDS011;5495;53.252;10.390;2022-09-04T11:21:41;3.60;;;2.17;;
10884;SDS011;5495;53.252;10.390;2022-09-04T11:24:48;3.63;;;2.10;;
10884;SDS011;5495;53.252;10.390;2022-09-04T11:27:39;5.10;;;2.30;;
10884;SDS011;5495;53.252;10.390;2022-09-04T11:30:36;3.57;;;2.30;;
10884;SDS011;5495;53.252;10.390;2022-09-04T11:33:35;5.07;;;2.30;;
10884;SDS011;5495;53.252;10.390;2022-09-04T11:36:31;2.33;;;2.10;;
10884;SDS011;5495;53.252;10.390;2022-09-04T11:42:29;3.73;;;2.30;;
10884;SDS011;5495;53.252;10.390;2022-09-04T11:45:23;2.83;;;1.90;;
10884;SDS011;5495;53.252;10.390;2022-09-04T11:51:08;4.00;;;2.70;;
10884;SDS011;5495;53.252;10.390;2022-09-04T11:54:10;3.60;;;2.43;;
10884;SDS011;5495;53.252;10.390;2022-09-04T11:56:55;2.93;;;1.87;;
10884;SDS011;5495;53.252;10.390;2022-09-04T11:59:40;5.27;;;2.30;;
10884;SDS011;5495;53.252;10.390;2022-09-04T12:05:37;3.80;;;2.20;;
10884;SDS011;5495;53.252;10.390;2022-09-04T12:08:36;2.80;;;2.33;;
10884;SDS011;5495;53.252;10.390;2022-09-04T12:14:25;2.57;;;2.37;;
10884;SDS011;5495;53.252;10.390;2022-09-04T12:29:14;2.57;;;2.23;;
10884;SDS011;5495;53.252;10.390;2022-09-04T12:32:03;3.33;;;2.23;;
10884;SDS011;5495;53.252;10.390;2022-09-04T12:35:13;3.03;;;1.97;;
10884;SDS011;5495;53.252;10.390;2022-09-04T12:41:11;2.97;;;2.10;;
10884;SDS011;5495;53.252;10.390;2022-09-04T12:43:49;2.63;;;2.30;;
10884;SDS011;5495;53.252;10.390;2022-09-04T12:46:36;3.50;;;2.07;;
10884;SDS011;5495;53.252;10.390;2022-09-04T12:49:25;3.33;;;2.37;;
10884;SDS011;5495;53.252;10.390;2022-09-04T12:52:10;3.10;;;2.23;;
10884;SDS011;5495;53.252;10.390;2022-09-04T12:54:50;2.57;;;2.30;;
10884;SDS011;5495;53.252;10.390;2022-09-04T12:57:30;2.87;;;1.83;;
10884;SDS011;5495;53.252;10.390;2022-09-04T13:00:05;2.63;;;2.00;;
10884;SDS011;5495;53.252;10.390;2022-09-04T13:02:51;5.87;;;2.30;;
10884;SDS011;5495;53.252;10.390;2022-09-04T13:05:31;3.43;;;2.07;;
10884;SDS011;5495;53.252;10.390;2022-09-04T13:08:12;3.10;;;2.20;;
10884;SDS011;5495;53.252;10.390;2022-09-04T13:10:51;3.03;;;2.00;;
10884;SDS011;5495;53.252;10.390;2022-09-04T13:13:28;2.60;;;2.30;;
10884;SDS011;5495;53.252;10.390;2022-09-04T13:16:08;5.43;;;2.40;;
10884;SDS011;5495;53.252;10.390;2022-09-04T13:18:48;2.87;;;2.17;;
10884;SDS011;5495;53.252;10.390;2022-09-04T13:21:29;4.30;;;2.00;;
10884;SDS011;5495;53.252;10.390;2022-09-04T13:24:18;2.10;;;1.90;;
10884;SDS011;5495;53.252;10.390;2022-09-04T13:27:04;3.27;;;1.90;;
10884;SDS011;5495;53.252;10.390;2022-09-04T13:29:44;3.00;;;2.10;;
10884;SDS011;5495;53.252;10.390;2022-09-04T13:32:28;3.90;;;2.10;;
10884;SDS011;5495;53.252;10.390;2022-09-04T13:35:09;5.07;;;1.90;;
10884;SDS011;5495;53.252;10.390;2022-09-04T13:37:48;2.30;;;2.07;;
10884;SDS011;5495;53.252;10.390;2022-09-04T13:40:33;2.67;;;2.00;;
10884;SDS011;5495;53.252;10.390;2022-09-04T13:43:37;2.60;;;2.13;;
10884;SDS011;5495;53.252;10.390;2022-09-04T13:46:22;2.57;;;2.00;;
10884;SDS011;5495;53.252;10.390;2022-09-04T13:48:55;2.17;;;1.97;;
10884;SDS011;5495;53.252;10.390;2022-09-04T13:51:28;2.37;;;2.10;;
10884;SDS011;5495;53.252;10.390;2022-09-04T13:54:07;3.17;;;1.73;;
10884;SDS011;5495;53.252;10.390;2022-09-04T13:56:40;3.50;;;2.17;;
10884;SDS011;5495;53.252;10.390;2022-09-04T13:59:17;2.80;;;1.90;;
10884;SDS011;5495;53.252;10.390;2022-09-04T14:01:47;5.03;;;1.80;;
10884;SDS011;5495;53.252;10.390;2022-09-04T14:04:19;4.00;;;2.00;;
10884;SDS011;5495;53.252;10.390;2022-09-04T14:06:51;4.30;;;2.10;;
10884;SDS011;5495;53.252;10.390;2022-09-04T14:09:31;2.53;;;2.03;;
10884;SDS011;5495;53.252;10.390;2022-09-04T14:12:12;2.27;;;2.00;;
10884;SDS011;5495;53.252;10.390;2022-09-04T14:18:02;2.30;;;1.80;;
10884;SDS011;5495;53.252;10.390;2022-09-04T14:20:44;2.33;;;2.00;;
10884;SDS011;5495;53.252;10.390;2022-09-04T14:23:24;3.87;;;1.97;;
10884;SDS011;5495;53.252;10.390;2022-09-04T14:26:07;2.60;;;1.80;;
10884;SDS011;5495;53.252;10.390;2022-09-04T14:28:44;2.57;;;1.80;;
10884;SDS011;5495;53.252;10.390;2022-09-04T14:31:17;2.70;;;2.07;;
10884;SDS011;5495;53.252;10.390;2022-09-04T14:33:53;4.57;;;2.23;;
10884;SDS011;5495;53.252;10.390;2022-09-04T14:36:31;7.30;;;2.20;;
10884;SDS011;5495;53.252;10.390;2022-09-04T14:39:15;3.17;;;1.97;;
10884;SDS011;5495;53.252;10.390;2022-09-04T14:41:53;2.10;;;1.90;;
10884;SDS011;5495;53.252;10.390;2022-09-04T14:44:40;2.37;;;1.87;;
10884;SDS011;5495;53.252;10.390;2022-09-04T14:47:25;2.73;;;1.97;;
10884;SDS011;5495;53.252;10.390;2022-09-04T14:49:59;5.83;;;2.07;;
10884;SDS011;5495;53.252;10.390;2022-09-04T14:52:28;3.43;;;1.87;;
10884;SDS011;5495;53.252;10.390;2022-09-04T14:54:59;2.87;;;2.27;;
10884;SDS011;5495;53.252;10.390;2022-09-04T14:57:29;3.33;;;1.77;;
10884;SDS011;5495;53.252;10.390;2022-09-04T15:00:03;2.67;;;1.80;;
10884;SDS011;5495;53.252;10.390;2022-09-04T15:02:36;2.40;;;2.20;;
10884;SDS011;5495;53.252;10.390;2022-09-04T15:05:15;4.53;;;2.20;;
10884;SDS011;5495;53.252;10.390;2022-09-04T15:07:51;4.00;;;1.87;;
10884;SDS011;5495;53.252;10.390;2022-09-04T15:10:29;3.60;;;2.00;;
10884;SDS011;5495;53.252;10.390;2022-09-04T15:13:11;2.53;;;2.03;;
10884;SDS011;5495;53.252;10.390;2022-09-04T15:16:04;2.67;;;2.17;;
10884;SDS011;5495;53.252;10.390;2022-09-04T15:18:57;2.53;;;1.90;;
10884;SDS011;5495;53.252;10.390;2022-09-04T15:21:37;3.63;;;2.03;;
10884;SDS011;5495;53.252;10.390;2022-09-04T15:24:13;2.70;;;2.17;;
10884;SDS011;5495;53.252;10.390;2022-09-04T15:26:49;3.83;;;2.10;;
10884;SDS011;5495;53.252;10.390;2022-09-04T15:29:24;3.73;;;1.97;;
10884;SDS011;5495;53.252;10.390;2022-09-04T15:32:01;4.63;;;2.03;;
10884;SDS011;5495;53.252;10.390;2022-09-04T15:34:34;4.40;;;1.97;;
10884;SDS011;5495;53.252;10.390;2022-09-04T15:37:12;2.80;;;2.20;;
10884;SDS011;5495;53.252;10.390;2022-09-04T15:39:50;2.23;;;2.00;;
10884;SDS011;5495;53.252;10.390;2022-09-04T15:42:33;4.33;;;2.10;;
10884;SDS011;5495;53.252;10.390;2022-09-04T15:45:07;3.50;;;2.20;;
10884;SDS011;5495;53.252;10.390;2022-09-04T15:50:50;2.10;;;1.87;;
10884;SDS011;5495;53.252;10.390;2022-09-04T15:53:27;3.23;;;2.20;;
10884;SDS011;5495;53.252;10.390;2022-09-04T15:56:04;2.53;;;2.10;;
10884;SDS011;5495;53.252;10.390;2022-09-04T15:58:39;4.17;;;2.00;;
10884;SDS011;5495;53.252;10.390;2022-09-04T16:01:13;2.70;;;1.97;;
10884;SDS011;5495;53.252;10.390;2022-09-04T16:03:49;2.47;;;1.87;;
10884;SDS011;5495;53.252;10.390;2022-09-04T16:06:26;2.37;;;2.13;;
10884;SDS011;5495;53.252;10.390;2022-09-04T16:08:59;2.83;;;2.10;;
10884;SDS011;5495;53.252;10.390;2022-09-04T16:11:32;3.17;;;2.37;;
10884;SDS011;5495;53.252;10.390;2022-09-04T16:14:02;3.03;;;2.30;;
10884;SDS011;5495;53.252;10.390;2022-09-04T16:16:37;6.00;;;2.33;;
10884;SDS011;5495;53.252;10.390;2022-09-04T16:19:13;2.77;;;1.90;;
10884;SDS011;5495;53.252;10.390;2022-09-04T16:21:49;3.00;;;2.50;;
10884;SDS011;5495;53.252;10.390;2022-09-04T16:24:27;2.37;;;1.80;;
10884;SDS011;5495;53.252;10.390;2022-09-04T16:26:59;3.07;;;2.07;;
10884;SDS011;5495;53.252;10.390;2022-09-04T16:29:33;2.77;;;1.97;;
10884;SDS011;5495;53.252;10.390;2022-09-04T16:32:04;2.00;;;1.80;;
10884;SDS011;5495;53.252;10.390;2022-09-04T16:34:37;3.90;;;2.20;;
10884;SDS011;5495;53.252;10.390;2022-09-04T16:37:13;4.97;;;1.90;;
10884;SDS011;5495;53.252;10.390;2022-09-04T16:39:54;4.03;;;2.00;;
10884;SDS011;5495;53.252;10.390;2022-09-04T16:42:30;4.60;;;2.10;;
10884;SDS011;5495;53.252;10.390;2022-09-04T16:45:06;2.60;;;1.97;;
10884;SDS011;5495;53.252;10.390;2022-09-04T16:47:41;2.60;;;1.93;;
10884;SDS011;5495;53.252;10.390;2022-09-04T16:50:13;2.93;;;2.00;;
10884;SDS011;5495;53.252;10.390;2022-09-04T16:52:54;4.60;;;2.40;;
10884;SDS011;5495;53.252;10.390;2022-09-04T16:55:38;2.03;;;1.83;;
10884;SDS011;5495;53.252;10.390;2022-09-04T16:58:25;2.53;;;2.27;;
10884;SDS011;5495;53.252;10.390;2022-09-04T17:01:11;3.30;;;2.07;;
10884;SDS011;5495;53.252;10.390;2022-09-04T17:03:52;2.37;;;2.10;;
10884;SDS011;5495;53.252;10.390;2022-09-04T17:06:30;3.23;;;1.97;;
10884;SDS011;5495;53.252;10.390;2022-09-04T17:09:08;2.73;;;1.77;;
10884;SDS011;5495;53.252;10.390;2022-09-04T17:11:45;5.10;;;2.20;;
10884;SDS011;5495;53.252;10.390;2022-09-04T17:14:18;4.70;;;2.10;;
10884;SDS011;5495;53.252;10.390;2022-09-04T17:16:53;2.07;;;1.87;;
10884;SDS011;5495;53.252;10.390;2022-09-04T17:19:23;2.80;;;1.93;;
10884;SDS011;5495;53.252;10.390;2022-09-04T17:21:57;4.77;;;1.93;;
10884;SDS011;5495;53.252;10.390;2022-09-04T17:25:10;2.23;;;2.03;;
10884;SDS011;5495;53.252;10.390;2022-09-04T17:27:50;4.57;;;2.00;;
10884;SDS011;5495;53.252;10.390;2022-09-04T17:30:31;2.07;;;1.87;;
10884;SDS011;5495;53.252;10.390;2022-09-04T17:33:06;2.20;;;2.00;;
10884;SDS011;5495;53.252;10.390;2022-09-04T17:35:41;4.43;;;2.27;;
10884;SDS011;5495;53.252;10.390;2022-09-04T17:38:16;2.87;;;2.10;;
10884;SDS011;5495;53.252;10.390;2022-09-04T17:40:59;2.67;;;1.90;;
10884;SDS011;5495;53.252;10.390;2022-09-04T17:43:40;5.00;;;2.17;;
10884;SDS011;5495;53.252;10.390;2022-09-04T17:46:27;3.97;;;2.20;;
10884;SDS011;5495;53.252;10.390;2022-09-04T17:49:06;6.60;;;2.30;;
10884;SDS011;5495;53.252;10.390;2022-09-04T17:51:48;2.20;;;2.00;;
10884;SDS011;5495;53.252;10.390;2022-09-04T17:54:20;2.63;;;1.90;;
10884;SDS011;5495;53.252;10.390;2022-09-04T17:56:50;2.20;;;1.80;;
10884;SDS011;5495;53.252;10.390;2022-09-04T17:59:26;2.37;;;1.90;;
10884;SDS011;5495;53.252;10.390;2022-09-04T18:02:03;5.43;;;1.90;;
10884;SDS011;5495;53.252;10.390;2022-09-04T18:04:39;2.97;;;2.20;;
10884;SDS011;5495;53.252;10.390;2022-09-04T18:07:13;2.30;;;2.10;;
10884;SDS011;5495;53.252;10.390;2022-09-04T18:09:56;6.13;;;2.23;;
10884;SDS011;5495;53.252;10.390;2022-09-04T18:12:35;4.33;;;1.90;;
10884;SDS011;5495;53.252;10.390;2022-09-04T18:15:10;2.47;;;1.83;;
10884;SDS011;5495;53.252;10.390;2022-09-04T18:17:45;2.87;;;2.20;;
10884;SDS011;5495;53.252;10.390;2022-09-04T18:20:26;3.30;;;2.03;;
10884;SDS011;5495;53.252;10.390;2022-09-04T18:26:06;2.80;;;2.20;;
10884;SDS011;5495;53.252;10.390;2022-09-04T18:28:40;3.40;;;2.10;;
10884;SDS011;5495;53.252;10.390;2022-09-04T18:31:17;2.53;;;2.10;;
10884;SDS011;5495;53.252;10.390;2022-09-04T18:33:52;3.97;;;2.20;;
10884;SDS011;5495;53.252;10.390;2022-09-04T18:36:26;4.80;;;2.20;;